sensor_id;sensor_type;location;lat;lon;timestamp;temperature;humidity
49503;DHT22;35409;48.776;9.204;2023-06-22T00:00:48;20.70;99.90
49503;DHT22;35409;48.776;9.204;2023-06-22T00:03:13;20.70;99.90
49503;DHT22;35409;48.776;9.204;2023-06-22T00:05:39;20.70;99.90
49503;DHT22;35409;48.776;9.204;2023-06-22T00:08:05;20.70;99.90
49503;DHT22;35409;48.776;9.204;2023-06-22T00:10:31;20.60;99.90
49503;DHT22;35409;48.776;9.204;2023-06-22T00:12:56;20.60;99.90
49503;DHT22;35409;48.776;9.204;2023-06-22T00:15:22;20.60;99.90
49503;DHT22;35409;48.776;9.204;2023-06-22T00:17:48;20.60;99.90
49503;DHT22;35409;48.776;9.204;2023-06-22T00:20:14;20.50;99.90
49503;DHT22;35409;48.776;9.204;2023-06-22T00:22:40;20.50;99.90
49503;DHT22;35409;48.776;9.204;2023-06-22T00:25:09;20.50;99.90
49503;DHT22;35409;48.776;9.204;2023-06-22T00:27:35;20.50;99.90
49503;DHT22;35409;48.776;9.204;2023-06-22T00:30:01;20.40;99.90
49503;DHT22;35409;48.776;9.204;2023-06-22T00:32:27;20.40;99.90
49503;DHT22;35409;48.776;9.204;2023-06-22T00:34:52;20.40;99.90
49503;DHT22;35409;48.776;9.204;2023-06-22T00:37:18;20.30;99.90
49503;DHT22;35409;48.776;9.204;2023-06-22T00:39:44;20.30;99.90
49503;DHT22;35409;48.776;9.204;2023-06-22T00:42:10;20.30;99.90
49503;DHT22;35409;48.776;9.204;2023-06-22T00:44:36;20.30;99.90
49503;DHT22;35409;48.776;9.204;2023-06-22T00:47:02;20.20;99.90
49503;DHT22;35409;48.776;9.204;2023-06-22T00:49:28;20.20;99.90
49503;DHT22;35409;48.776;9.204;2023-06-22T00:51:55;20.20;99.90
49503;DHT22;35409;48.776;9.204;2023-06-22T00:54:21;20.20;99.90
49503;DHT22;35409;48.776;9.204;2023-06-22T00:56:53;20.10;99.90
49503;DHT22;35409;48.776;9.204;2023-06-22T00:59:20;20.10;99.90
49503;DHT22;35409;48.776;9.204;2023-06-22T01:01:46;20.10;99.90
49503;DHT22;35409;48.776;9.204;2023-06-22T01:04:12;20.10;99.90
49503;DHT22;35409;48.776;9.204;2023-06-22T01:07:01;20.00;99.90
49503;DHT22;35409;48.776;9.204;2023-06-22T01:09:33;20.00;99.90
49503;DHT22;35409;48.776;9.204;2023-06-22T01:12:03;20.00;99.90
49503;DHT22;35409;48.776;9.204;2023-06-22T01:14:43;20.00;99.90
49503;DHT22;35409;48.776;9.204;2023-06-22T01:17:13;20.00;99.90
49503;DHT22;35409;48.776;9.204;2023-06-22T01:19:46;20.00;99.90
49503;DHT22;35409;48.776;9.204;2023-06-22T01:22:16;19.90;99.90
49503;DHT22;35409;48.776;9.204;2023-06-22T01:25:09;19.90;99.90
49503;DHT22;35409;48.776;9.204;2023-06-22T01:27:58;20.00;99.90
49503;DHT22;35409;48.776;9.204;2023-06-22T01:30:22;20.00;99.90
49503;DHT22;35409;48.776;9.204;2023-06-22T01:32:53;20.00;99.90
49503;DHT22;35409;48.776;9.204;2023-06-22T01:35:20;19.90;99.90
49503;DHT22;35409;48.776;9.204;2023-06-22T01:37:46;19.90;99.90
49503;DHT22;35409;48.776;9.204;2023-06-22T01:40:13;19.90;99.90
49503;DHT22;35409;48.776;9.204;2023-06-22T01:42:40;19.90;99.90
49503;DHT22;35409;48.776;9.204;2023-06-22T01:45:07;19.90;99.90
49503;DHT22;35409;48.776;9.204;2023-06-22T01:47:33;19.90;99.90
49503;DHT22;35409;48.776;9.204;2023-06-22T01:49:59;19.80;99.90
49503;DHT22;35409;48.776;9.204;2023-06-22T01:52:25;19.80;99.90
49503;DHT22;35409;48.776;9.204;2023-06-22T01:54:50;19.80;99.90
49503;DHT22;35409;48.776;9.204;2023-06-22T01:57:16;19.80;99.90
49503;DHT22;35409;48.776;9.204;2023-06-22T08:09:17;27.00;99.90
49503;DHT22;35409;48.776;9.204;2023-06-22T08:11:42;27.00;99.90
49503;DHT22;35409;48.776;9.204;2023-06-22T08:14:08;27.20;99.90
49503;DHT22;35409;48.776;9.204;2023-06-22T08:16:34;27.30;99.90
49503;DHT22;35409;48.776;9.204;2023-06-22T08:18:59;27.40;99.90
49503;DHT22;35409;48.776;9.204;2023-06-22T08:21:25;27.50;99.90
49503;DHT22;35409;48.776;9.204;2023-06-22T08:23:50;27.70;99.90
49503;DHT22;35409;48.776;9.204;2023-06-22T08:26:16;27.70;99.90
49503;DHT22;35409;48.776;9.204;2023-06-22T08:28:41;27.90;99.90
49503;DHT22;35409;48.776;9.204;2023-06-22T08:31:07;28.10;99.90
49503;DHT22;35409;48.776;9.204;2023-06-22T08:33:33;28.10;99.90
49503;DHT22;35409;48.776;9.204;2023-06-22T08:35:59;28.30;99.90
49503;DHT22;35409;48.776;9.204;2023-06-22T08:38:26;28.40;99.90
49503;DHT22;35409;48.776;9.204;2023-06-22T08:40:51;28.50;99.90
49503;DHT22;35409;48.776;9.204;2023-06-22T08:43:17;28.80;99.90
49503;DHT22;35409;48.776;9.204;2023-06-22T08:45:42;29.00;99.90
49503;DHT22;35409;48.776;9.204;2023-06-22T08:48:08;29.10;99.90
49503;DHT22;35409;48.776;9.204;2023-06-22T08:50:33;29.20;99.90
49503;DHT22;35409;48.776;9.204;2023-06-22T08:52:59;29.20;99.90
49503;DHT22;35409;48.776;9.204;2023-06-22T08:55:25;29.20;99.90
49503;DHT22;35409;48.776;9.204;2023-06-22T08:57:50;29.30;99.90
49503;DHT22;35409;48.776;9.204;2023-06-22T09:00:16;29.40;99.90
49503;DHT22;35409;48.776;9.204;2023-06-22T09:19:51;30.60;99.90
49503;DHT22;35409;48.776;9.204;2023-06-22T09:22:17;30.60;97.70
49503;DHT22;35409;48.776;9.204;2023-06-22T09:24:43;30.70;97.40
49503;DHT22;35409;48.776;9.204;2023-06-22T09:27:09;30.90;97.10
49503;DHT22;35409;48.776;9.204;2023-06-22T09:29:34;31.10;96.70
49503;DHT22;35409;48.776;9.204;2023-06-22T09:32:00;31.30;96.50
49503;DHT22;35409;48.776;9.204;2023-06-22T09:34:26;31.50;95.90
49503;DHT22;35409;48.776;9.204;2023-06-22T09:36:52;31.60;95.70
49503;DHT22;35409;48.776;9.204;2023-06-22T09:39:18;31.80;95.90
49503;DHT22;35409;48.776;9.204;2023-06-22T09:41:44;31.80;95.00
49503;DHT22;35409;48.776;9.204;2023-06-22T09:44:09;31.80;94.90
49503;DHT22;35409;48.776;9.204;2023-06-22T09:46:35;31.80;94.80
49503;DHT22;35409;48.776;9.204;2023-06-22T09:49:01;31.80;94.80
49503;DHT22;35409;48.776;9.204;2023-06-22T09:51:26;31.80;95.00
49503;DHT22;35409;48.776;9.204;2023-06-22T09:53:52;31.80;94.50
49503;DHT22;35409;48.776;9.204;2023-06-22T09:56:19;31.60;94.40
49503;DHT22;35409;48.776;9.204;2023-06-22T09:58:46;31.60;94.40
49503;DHT22;35409;48.776;9.204;2023-06-22T10:01:12;31.60;94.50
49503;DHT22;35409;48.776;9.204;2023-06-22T10:03:40;31.70;94.20
49503;DHT22;35409;48.776;9.204;2023-06-22T10:06:07;31.90;93.90
49503;DHT22;35409;48.776;9.204;2023-06-22T10:08:33;31.90;93.70
49503;DHT22;35409;48.776;9.204;2023-06-22T10:10:58;31.90;93.60
49503;DHT22;35409;48.776;9.204;2023-06-22T10:13:24;32.00;93.20
49503;DHT22;35409;48.776;9.204;2023-06-22T10:15:49;32.00;93.20
49503;DHT22;35409;48.776;9.204;2023-06-22T10:18:18;32.00;93.20
49503;DHT22;35409;48.776;9.204;2023-06-22T10:20:46;32.00;93.30
49503;DHT22;35409;48.776;9.204;2023-06-22T10:23:12;32.10;93.20
49503;DHT22;35409;48.776;9.204;2023-06-22T10:25:38;32.30;93.00
49503;DHT22;35409;48.776;9.204;2023-06-22T10:28:03;32.50;92.80
49503;DHT22;35409;48.776;9.204;2023-06-22T10:30:29;32.70;92.50
49503;DHT22;35409;48.776;9.204;2023-06-22T10:32:57;33.00;91.80
49503;DHT22;35409;48.776;9.204;2023-06-22T10:35:23;32.90;91.90
49503;DHT22;35409;48.776;9.204;2023-06-22T10:37:49;33.20;91.90
49503;DHT22;35409;48.776;9.204;2023-06-22T10:40:16;33.30;91.50
49503;DHT22;35409;48.776;9.204;2023-06-22T10:42:42;33.40;91.40
49503;DHT22;35409;48.776;9.204;2023-06-22T10:45:08;33.50;91.00
49503;DHT22;35409;48.776;9.204;2023-06-22T10:47:35;33.60;90.90
49503;DHT22;35409;48.776;9.204;2023-06-22T10:50:01;33.60;90.60
49503;DHT22;35409;48.776;9.204;2023-06-22T10:52:27;33.50;90.60
49503;DHT22;35409;48.776;9.204;2023-06-22T10:54:52;33.70;90.60
49503;DHT22;35409;48.776;9.204;2023-06-22T10:57:18;33.80;90.20
49503;DHT22;35409;48.776;9.204;2023-06-22T10:59:44;33.80;90.00
49503;DHT22;35409;48.776;9.204;2023-06-22T11:02:10;33.70;89.30
49503;DHT22;35409;48.776;9.204;2023-06-22T11:04:35;33.50;89.30
49503;DHT22;35409;48.776;9.204;2023-06-22T11:07:02;33.50;89.40
49503;DHT22;35409;48.776;9.204;2023-06-22T11:09:27;33.50;89.30
49503;DHT22;35409;48.776;9.204;2023-06-22T11:11:53;33.50;89.20
49503;DHT22;35409;48.776;9.204;2023-06-22T11:14:19;33.50;88.80
49503;DHT22;35409;48.776;9.204;2023-06-22T11:16:45;33.60;89.30
49503;DHT22;35409;48.776;9.204;2023-06-22T11:19:12;33.60;87.70
49503;DHT22;35409;48.776;9.204;2023-06-22T11:21:38;33.60;87.60
49503;DHT22;35409;48.776;9.204;2023-06-22T11:24:04;33.50;87.60
49503;DHT22;35409;48.776;9.204;2023-06-22T11:26:30;33.50;88.20
49503;DHT22;35409;48.776;9.204;2023-06-22T11:28:57;33.40;88.00
49503;DHT22;35409;48.776;9.204;2023-06-22T11:31:22;33.40;88.10
49503;DHT22;35409;48.776;9.204;2023-06-22T11:33:48;33.30;88.20
49503;DHT22;35409;48.776;9.204;2023-06-22T11:36:14;33.20;87.30
49503;DHT22;35409;48.776;9.204;2023-06-22T11:38:40;33.20;87.70
49503;DHT22;35409;48.776;9.204;2023-06-22T11:41:06;33.10;88.00
49503;DHT22;35409;48.776;9.204;2023-06-22T11:43:33;33.20;88.70
49503;DHT22;35409;48.776;9.204;2023-06-22T11:45:59;33.40;89.20
49503;DHT22;35409;48.776;9.204;2023-06-22T11:48:25;33.70;88.30
49503;DHT22;35409;48.776;9.204;2023-06-22T11:50:51;33.90;88.40
49503;DHT22;35409;48.776;9.204;2023-06-22T11:53:17;34.10;87.00
49503;DHT22;35409;48.776;9.204;2023-06-22T11:55:43;34.30;86.40
49503;DHT22;35409;48.776;9.204;2023-06-22T11:58:09;34.40;85.70
49503;DHT22;35409;48.776;9.204;2023-06-22T12:00:35;34.50;84.70
49503;DHT22;35409;48.776;9.204;2023-06-22T12:03:00;34.50;83.90
49503;DHT22;35409;48.776;9.204;2023-06-22T12:05:26;34.40;82.60
49503;DHT22;35409;48.776;9.204;2023-06-22T12:07:55;34.20;82.70
49503;DHT22;35409;48.776;9.204;2023-06-22T12:10:25;34.20;82.10
49503;DHT22;35409;48.776;9.204;2023-06-22T12:12:51;34.00;82.60
49503;DHT22;35409;48.776;9.204;2023-06-22T12:15:17;34.00;83.70
49503;DHT22;35409;48.776;9.204;2023-06-22T12:17:42;33.80;84.10
49503;DHT22;35409;48.776;9.204;2023-06-22T12:20:08;33.70;84.40
49503;DHT22;35409;48.776;9.204;2023-06-22T12:22:34;33.70;85.00
49503;DHT22;35409;48.776;9.204;2023-06-22T12:25:00;33.60;85.80
49503;DHT22;35409;48.776;9.204;2023-06-22T12:27:26;33.50;86.00
49503;DHT22;35409;48.776;9.204;2023-06-22T12:29:52;33.50;86.10
49503;DHT22;35409;48.776;9.204;2023-06-22T12:32:18;33.50;86.00
49503;DHT22;35409;48.776;9.204;2023-06-22T12:34:44;33.60;85.60
49503;DHT22;35409;48.776;9.204;2023-06-22T12:37:10;33.70;85.60
49503;DHT22;35409;48.776;9.204;2023-06-22T12:39:36;33.60;85.80
49503;DHT22;35409;48.776;9.204;2023-06-22T12:42:02;33.40;86.20
49503;DHT22;35409;48.776;9.204;2023-06-22T12:44:28;33.20;86.30
49503;DHT22;35409;48.776;9.204;2023-06-22T12:46:53;33.10;86.40
49503;DHT22;35409;48.776;9.204;2023-06-22T12:49:19;32.80;86.40
49503;DHT22;35409;48.776;9.204;2023-06-22T12:51:45;32.70;87.40
49503;DHT22;35409;48.776;9.204;2023-06-22T12:54:11;32.60;87.40
49503;DHT22;35409;48.776;9.204;2023-06-22T12:56:37;32.60;88.00
49503;DHT22;35409;48.776;9.204;2023-06-22T12:59:03;32.50;89.10
49503;DHT22;35409;48.776;9.204;2023-06-22T13:01:30;32.40;89.20
49503;DHT22;35409;48.776;9.204;2023-06-22T13:03:56;32.40;89.30
49503;DHT22;35409;48.776;9.204;2023-06-22T13:06:22;32.30;88.90
49503;DHT22;35409;48.776;9.204;2023-06-22T13:08:47;32.20;89.00
49503;DHT22;35409;48.776;9.204;2023-06-22T13:11:13;32.20;89.20
49503;DHT22;35409;48.776;9.204;2023-06-22T13:13:39;32.00;89.90
49503;DHT22;35409;48.776;9.204;2023-06-22T13:16:05;32.00;90.00
49503;DHT22;35409;48.776;9.204;2023-06-22T13:18:31;32.00;90.10
49503;DHT22;35409;48.776;9.204;2023-06-22T13:20:57;32.00;89.90
49503;DHT22;35409;48.776;9.204;2023-06-22T13:23:23;32.10;90.00
49503;DHT22;35409;48.776;9.204;2023-06-22T13:25:49;32.10;90.10
49503;DHT22;35409;48.776;9.204;2023-06-22T13:28:14;32.20;90.00
49503;DHT22;35409;48.776;9.204;2023-06-22T13:30:41;32.40;90.20
49503;DHT22;35409;48.776;9.204;2023-06-22T13:33:07;32.60;90.00
49503;DHT22;35409;48.776;9.204;2023-06-22T13:35:32;32.80;89.40
49503;DHT22;35409;48.776;9.204;2023-06-22T13:37:58;32.90;89.20
49503;DHT22;35409;48.776;9.204;2023-06-22T13:40:23;33.00;89.10
49503;DHT22;35409;48.776;9.204;2023-06-22T13:42:50;33.10;87.80
49503;DHT22;35409;48.776;9.204;2023-06-22T13:45:15;33.20;86.70
49503;DHT22;35409;48.776;9.204;2023-06-22T13:47:42;33.40;86.40
49503;DHT22;35409;48.776;9.204;2023-06-22T13:50:08;33.40;86.70
49503;DHT22;35409;48.776;9.204;2023-06-22T13:52:34;33.40;85.70
49503;DHT22;35409;48.776;9.204;2023-06-22T13:55:00;33.40;86.00
49503;DHT22;35409;48.776;9.204;2023-06-22T13:57:25;33.40;86.10
49503;DHT22;35409;48.776;9.204;2023-06-22T13:59:52;33.50;86.30
49503;DHT22;35409;48.776;9.204;2023-06-22T14:02:18;33.50;85.40
49503;DHT22;35409;48.776;9.204;2023-06-22T14:04:44;33.60;84.40
49503;DHT22;35409;48.776;9.204;2023-06-22T14:07:09;33.60;83.70
49503;DHT22;35409;48.776;9.204;2023-06-22T14:09:35;33.70;83.40
49503;DHT22;35409;48.776;9.204;2023-06-22T14:12:05;33.90;83.80
49503;DHT22;35409;48.776;9.204;2023-06-22T14:14:32;34.00;82.70
49503;DHT22;35409;48.776;9.204;2023-06-22T14:16:58;34.20;82.70
49503;DHT22;35409;48.776;9.204;2023-06-22T14:19:24;34.40;79.70
49503;DHT22;35409;48.776;9.204;2023-06-22T14:21:50;34.70;79.30
49503;DHT22;35409;48.776;9.204;2023-06-22T14:24:15;34.90;79.60
49503;DHT22;35409;48.776;9.204;2023-06-22T14:26:41;35.30;78.90
49503;DHT22;35409;48.776;9.204;2023-06-22T14:29:07;35.50;78.30
49503;DHT22;35409;48.776;9.204;2023-06-22T14:31:32;35.40;77.40
49503;DHT22;35409;48.776;9.204;2023-06-22T14:33:58;35.10;77.30
49503;DHT22;35409;48.776;9.204;2023-06-22T14:36:24;35.00;76.60
49503;DHT22;35409;48.776;9.204;2023-06-22T14:38:49;35.00;76.70
49503;DHT22;35409;48.776;9.204;2023-06-22T14:41:15;35.00;77.20
49503;DHT22;35409;48.776;9.204;2023-06-22T14:43:46;35.30;76.70
49503;DHT22;35409;48.776;9.204;2023-06-22T14:46:14;35.80;74.30
49503;DHT22;35409;48.776;9.204;2023-06-22T14:48:39;36.10;72.70
49503;DHT22;35409;48.776;9.204;2023-06-22T14:51:05;36.40;71.80
49503;DHT22;35409;48.776;9.204;2023-06-22T14:53:30;36.80;71.40
49503;DHT22;35409;48.776;9.204;2023-06-22T14:55:56;37.10;69.90
49503;DHT22;35409;48.776;9.204;2023-06-22T14:58:22;37.00;68.10
49503;DHT22;35409;48.776;9.204;2023-06-22T15:00:47;36.70;65.70
49503;DHT22;35409;48.776;9.204;2023-06-22T15:03:13;36.40;64.40
49503;DHT22;35409;48.776;9.204;2023-06-22T15:05:43;36.20;63.70
49503;DHT22;35409;48.776;9.204;2023-06-22T15:08:09;36.10;63.00
49503;DHT22;35409;48.776;9.204;2023-06-22T15:10:34;35.90;62.90
49503;DHT22;35409;48.776;9.204;2023-06-22T15:13:00;35.50;62.90
49503;DHT22;35409;48.776;9.204;2023-06-22T15:15:26;35.00;63.30
49503;DHT22;35409;48.776;9.204;2023-06-22T15:17:52;34.70;63.90
49503;DHT22;35409;48.776;9.204;2023-06-22T15:20:17;34.50;64.20
49503;DHT22;35409;48.776;9.204;2023-06-22T15:22:43;34.50;63.90
49503;DHT22;35409;48.776;9.204;2023-06-22T15:25:09;34.70;63.80
49503;DHT22;35409;48.776;9.204;2023-06-22T15:27:35;35.00;63.60
49503;DHT22;35409;48.776;9.204;2023-06-22T15:30:01;35.30;62.60
49503;DHT22;35409;48.776;9.204;2023-06-22T15:32:29;35.40;62.80
49503;DHT22;35409;48.776;9.204;2023-06-22T15:34:54;35.20;62.50
49503;DHT22;35409;48.776;9.204;2023-06-22T15:37:20;35.00;62.70
49503;DHT22;35409;48.776;9.204;2023-06-22T15:39:46;34.90;62.60
49503;DHT22;35409;48.776;9.204;2023-06-22T15:42:12;34.70;62.30
49503;DHT22;35409;48.776;9.204;2023-06-22T15:44:38;34.50;62.70
49503;DHT22;35409;48.776;9.204;2023-06-22T15:47:04;34.40;62.00
49503;DHT22;35409;48.776;9.204;2023-06-22T15:49:29;34.60;62.30
49503;DHT22;35409;48.776;9.204;2023-06-22T15:51:55;34.80;62.50
49503;DHT22;35409;48.776;9.204;2023-06-22T15:54:20;35.00;62.30
49503;DHT22;35409;48.776;9.204;2023-06-22T15:56:46;35.10;62.20
49503;DHT22;35409;48.776;9.204;2023-06-22T15:59:12;34.90;62.30
49503;DHT22;35409;48.776;9.204;2023-06-22T16:01:37;34.70;62.30
49503;DHT22;35409;48.776;9.204;2023-06-22T16:04:03;34.40;62.50
49503;DHT22;35409;48.776;9.204;2023-06-22T16:06:29;34.10;62.90
49503;DHT22;35409;48.776;9.204;2023-06-22T16:08:54;33.70;63.60
49503;DHT22;35409;48.776;9.204;2023-06-22T16:11:20;33.30;64.30
49503;DHT22;35409;48.776;9.204;2023-06-22T16:13:46;33.00;64.90
49503;DHT22;35409;48.776;9.204;2023-06-22T16:16:12;32.80;65.40
49503;DHT22;35409;48.776;9.204;2023-06-22T16:18:37;32.60;65.50
49503;DHT22;35409;48.776;9.204;2023-06-22T16:21:05;32.50;65.90
49503;DHT22;35409;48.776;9.204;2023-06-22T16:23:31;32.30;66.20
49503;DHT22;35409;48.776;9.204;2023-06-22T16:25:56;32.30;66.50
49503;DHT22;35409;48.776;9.204;2023-06-22T16:28:22;32.10;66.80
49503;DHT22;35409;48.776;9.204;2023-06-22T16:30:47;32.10;67.10
49503;DHT22;35409;48.776;9.204;2023-06-22T16:33:13;32.00;67.50
49503;DHT22;35409;48.776;9.204;2023-06-22T16:35:39;31.80;67.50
49503;DHT22;35409;48.776;9.204;2023-06-22T18:04:14;28.30;72.70
49503;DHT22;35409;48.776;9.204;2023-06-22T18:09:07;28.00;73.50
49503;DHT22;35409;48.776;9.204;2023-06-22T18:11:35;27.80;73.80
49503;DHT22;35409;48.776;9.204;2023-06-22T18:14:03;27.70;73.90
49503;DHT22;35409;48.776;9.204;2023-06-22T18:16:31;27.50;73.90
49503;DHT22;35409;48.776;9.204;2023-06-22T18:18:58;27.40;74.20
49503;DHT22;35409;48.776;9.204;2023-06-22T18:31:21;26.70;85.70
49503;DHT22;35409;48.776;9.204;2023-06-22T18:33:52;26.80;76.20
49503;DHT22;35409;48.776;9.204;2023-06-22T18:36:29;26.70;76.70
49503;DHT22;35409;48.776;9.204;2023-06-22T18:38:56;26.50;77.20
49503;DHT22;35409;48.776;9.204;2023-06-22T18:41:34;26.40;77.70
49503;DHT22;35409;48.776;9.204;2023-06-22T18:44:04;26.40;78.30
49503;DHT22;35409;48.776;9.204;2023-06-22T18:46:36;26.20;78.80
49503;DHT22;35409;48.776;9.204;2023-06-22T18:49:17;26.10;79.30
49503;DHT22;35409;48.776;9.204;2023-06-22T18:54:35;25.80;79.90
49503;DHT22;35409;48.776;9.204;2023-06-22T18:57:03;25.70;80.60
49503;DHT22;35409;48.776;9.204;2023-06-22T18:59:50;25.60;81.20
49503;DHT22;35409;48.776;9.204;2023-06-22T19:12:51;25.20;81.70
49503;DHT22;35409;48.776;9.204;2023-06-22T19:15:19;25.20;81.60
49503;DHT22;35409;48.776;9.204;2023-06-22T19:17:48;25.30;81.80
49503;DHT22;35409;48.776;9.204;2023-06-22T19:20:20;25.30;82.00
49503;DHT22;35409;48.776;9.204;2023-06-22T19:22:53;25.20;83.00
49503;DHT22;35409;48.776;9.204;2023-06-22T19:25:26;25.10;84.00
49503;DHT22;35409;48.776;9.204;2023-06-22T19:32:48;24.70;85.10
49503;DHT22;35409;48.776;9.204;2023-06-22T19:35:20;24.50;86.10
49503;DHT22;35409;48.776;9.204;2023-06-22T19:37:47;24.40;86.50
49503;DHT22;35409;48.776;9.204;2023-06-22T19:40:14;24.40;87.10
49503;DHT22;35409;48.776;9.204;2023-06-22T19:42:42;24.40;87.50
49503;DHT22;35409;48.776;9.204;2023-06-22T19:45:13;24.30;88.30
49503;DHT22;35409;48.776;9.204;2023-06-22T19:47:39;24.20;89.50
49503;DHT22;35409;48.776;9.204;2023-06-22T19:50:05;24.10;89.50
49503;DHT22;35409;48.776;9.204;2023-06-22T19:52:35;24.00;90.10
49503;DHT22;35409;48.776;9.204;2023-06-22T19:55:02;23.90;90.50
49503;DHT22;35409;48.776;9.204;2023-06-22T19:57:35;23.80;90.90
49503;DHT22;35409;48.776;9.204;2023-06-22T20:00:02;23.70;91.20
49503;DHT22;35409;48.776;9.204;2023-06-22T20:02:33;23.60;91.60
49503;DHT22;35409;48.776;9.204;2023-06-22T20:05:04;23.60;91.90
49503;DHT22;35409;48.776;9.204;2023-06-22T20:07:38;23.50;92.20
49503;DHT22;35409;48.776;9.204;2023-06-22T20:10:07;23.30;92.50
49503;DHT22;35409;48.776;9.204;2023-06-22T20:12:33;23.30;92.80
49503;DHT22;35409;48.776;9.204;2023-06-22T20:15:25;23.30;93.10
49503;DHT22;35409;48.776;9.204;2023-06-22T20:18:03;23.30;93.40
49503;DHT22;35409;48.776;9.204;2023-06-22T20:20:34;23.30;93.70
49503;DHT22;35409;48.776;9.204;2023-06-22T20:23:01;23.30;94.00
49503;DHT22;35409;48.776;9.204;2023-06-22T20:25:30;23.30;94.20
49503;DHT22;35409;48.776;9.204;2023-06-22T20:28:15;23.30;94.60
49503;DHT22;35409;48.776;9.204;2023-06-22T20:31:04;23.30;94.90
49503;DHT22;35409;48.776;9.204;2023-06-22T20:33:30;23.20;95.30
49503;DHT22;35409;48.776;9.204;2023-06-22T20:35:56;23.20;95.70
49503;DHT22;35409;48.776;9.204;2023-06-22T20:38:22;23.10;96.00
49503;DHT22;35409;48.776;9.204;2023-06-22T20:40:50;23.20;96.30
49503;DHT22;35409;48.776;9.204;2023-06-22T20:43:17;23.10;96.70
49503;DHT22;35409;48.776;9.204;2023-06-22T20:45:43;23.00;97.10
49503;DHT22;35409;48.776;9.204;2023-06-22T20:48:09;23.00;97.60
49503;DHT22;35409;48.776;9.204;2023-06-22T20:50:35;23.00;98.00
49503;DHT22;35409;48.776;9.204;2023-06-22T20:53:06;23.00;98.50
49503;DHT22;35409;48.776;9.204;2023-06-22T20:55:33;23.00;98.90
49503;DHT22;35409;48.776;9.204;2023-06-22T20:58:04;23.00;99.30
49503;DHT22;35409;48.776;9.204;2023-06-22T21:00:31;23.00;99.90
49503;DHT22;35409;48.776;9.204;2023-06-22T21:03:01;22.90;99.90
49503;DHT22;35409;48.776;9.204;2023-06-22T21:05:27;22.90;99.90
49503;DHT22;35409;48.776;9.204;2023-06-22T21:07:53;22.90;99.90
49503;DHT22;35409;48.776;9.204;2023-06-22T21:10:20;22.90;99.90
49503;DHT22;35409;48.776;9.204;2023-06-22T21:12:45;22.90;99.90
49503;DHT22;35409;48.776;9.204;2023-06-22T21:15:11;22.90;99.90
49503;DHT22;35409;48.776;9.204;2023-06-22T21:17:37;22.90;99.90
49503;DHT22;35409;48.776;9.204;2023-06-22T21:20:04;22.80;99.90
49503;DHT22;35409;48.776;9.204;2023-06-22T21:22:31;22.70;99.90
49503;DHT22;35409;48.776;9.204;2023-06-22T21:25:10;22.70;99.90
49503;DHT22;35409;48.776;9.204;2023-06-22T21:59:34;21.90;99.90
49503;DHT22;35409;48.776;9.204;2023-06-22T22:01:59;21.80;99.90
49503;DHT22;35409;48.776;9.204;2023-06-22T22:04:25;21.80;99.90
49503;DHT22;35409;48.776;9.204;2023-06-22T22:06:51;21.70;99.90
49503;DHT22;35409;48.776;9.204;2023-06-22T22:09:18;21.70;99.90
49503;DHT22;35409;48.776;9.204;2023-06-22T22:11:45;21.60;99.90
49503;DHT22;35409;48.776;9.204;2023-06-22T22:14:10;21.60;99.90
49503;DHT22;35409;48.776;9.204;2023-06-22T22:16:37;21.60;99.90
49503;DHT22;35409;48.776;9.204;2023-06-22T22:19:03;21.50;99.90
49503;DHT22;35409;48.776;9.204;2023-06-22T22:21:29;21.50;99.90
49503;DHT22;35409;48.776;9.204;2023-06-22T22:23:54;21.50;99.90
49503;DHT22;35409;48.776;9.204;2023-06-22T22:26:20;21.50;99.90
49503;DHT22;35409;48.776;9.204;2023-06-22T22:28:46;21.40;99.90
49503;DHT22;35409;48.776;9.204;2023-06-22T22:31:11;21.30;99.90
49503;DHT22;35409;48.776;9.204;2023-06-22T22:33:37;21.40;99.90
49503;DHT22;35409;48.776;9.204;2023-06-22T22:36:02;21.40;99.90
49503;DHT22;35409;48.776;9.204;2023-06-22T22:38:31;21.50;99.90
49503;DHT22;35409;48.776;9.204;2023-06-22T22:41:00;21.30;99.90
49503;DHT22;35409;48.776;9.204;2023-06-22T22:43:26;21.20;99.90
49503;DHT22;35409;48.776;9.204;2023-06-22T22:45:51;21.30;99.90
49503;DHT22;35409;48.776;9.204;2023-06-22T22:48:17;21.10;99.90
49503;DHT22;35409;48.776;9.204;2023-06-22T22:50:43;21.10;99.90
49503;DHT22;35409;48.776;9.204;2023-06-22T22:53:09;21.00;99.90
49503;DHT22;35409;48.776;9.204;2023-06-22T22:55:35;20.90;99.90
49503;DHT22;35409;48.776;9.204;2023-06-22T22:58:01;20.90;99.90
49503;DHT22;35409;48.776;9.204;2023-06-22T23:00:27;20.90;99.90
49503;DHT22;35409;48.776;9.204;2023-06-22T23:02:52;20.90;99.90
49503;DHT22;35409;48.776;9.204;2023-06-22T23:05:18;20.90;99.90
49503;DHT22;35409;48.776;9.204;2023-06-22T23:07:45;20.90;99.90
49503;DHT22;35409;48.776;9.204;2023-06-22T23:10:11;20.90;99.90
49503;DHT22;35409;48.776;9.204;2023-06-22T23:12:37;20.90;99.90
49503;DHT22;35409;48.776;9.204;2023-06-22T23:15:04;20.90;99.90
49503;DHT22;35409;48.776;9.204;2023-06-22T23:17:30;20.90;99.90
49503;DHT22;35409;48.776;9.204;2023-06-22T23:19:56;20.90;99.90
49503;DHT22;35409;48.776;9.204;2023-06-22T23:22:22;20.80;99.90
49503;DHT22;35409;48.776;9.204;2023-06-22T23:24:48;20.80;99.90
49503;DHT22;35409;48.776;9.204;2023-06-22T23:27:14;20.80;99.90
49503;DHT22;35409;48.776;9.204;2023-06-22T23:29:41;20.80;99.90
49503;DHT22;35409;48.776;9.204;2023-06-22T23:32:09;20.80;99.90
49503;DHT22;35409;48.776;9.204;2023-06-22T23:34:35;20.80;99.90
49503;DHT22;35409;48.776;9.204;2023-06-22T23:37:00;20.80;99.90
49503;DHT22;35409;48.776;9.204;2023-06-22T23:39:26;20.80;99.90
49503;DHT22;35409;48.776;9.204;2023-06-22T23:41:52;20.80;99.90
49503;DHT22;35409;48.776;9.204;2023-06-22T23:44:18;20.80;99.90
49503;DHT22;35409;48.776;9.204;2023-06-22T23:46:43;20.80;99.90
49503;DHT22;35409;48.776;9.204;2023-06-22T23:49:09;20.80;99.90
49503;DHT22;35409;48.776;9.204;2023-06-22T23:51:35;20.70;99.90
49503;DHT22;35409;48.776;9.204;2023-06-22T23:54:00;20.80;99.90
49503;DHT22;35409;48.776;9.204;2023-06-22T23:56:26;20.70;99.90
49503;DHT22;35409;48.776;9.204;2023-06-22T23:58:53;20.70;99.90
